sensor_id;sensor_type;location;lat;lon;timestamp;pressure;altitude;pressure_sealevel;temperature;humidity
43217;BME280;60511;42.686;23.300;2023-04-25T00:00:29;93957.41;;;25.11;30.51
43217;BME280;60511;42.686;23.300;2023-04-25T00:02:29;93937.16;;;24.91;31.06
43217;BME280;60511;42.686;23.300;2023-04-25T00:04:32;93937.56;;;24.89;30.43
43217;BME280;60511;42.686;23.300;2023-04-25T00:06:36;93938.34;;;24.90;30.66
43217;BME280;60511;42.686;23.300;2023-04-25T00:08:37;93905.75;;;24.72;30.44
43217;BME280;60511;42.686;23.300;2023-04-25T00:10:37;93929.44;;;24.89;30.78
43217;BME280;60511;42.686;23.300;2023-04-25T00:12:38;93917.03;;;24.84;30.96
43217;BME280;60511;42.686;23.300;2023-04-25T00:14:39;93903.09;;;24.79;30.61
43217;BME280;60511;42.686;23.300;2023-04-25T00:16:39;93900.03;;;24.84;30.95
43217;BME280;60511;42.686;23.300;2023-04-25T00:18:42;93887.59;;;24.69;30.84
43217;BME280;60511;42.686;23.300;2023-04-25T00:20:42;93913.13;;;24.78;31.18
43217;BME280;60511;42.686;23.300;2023-04-25T00:22:46;93917.41;;;24.79;30.91
43217;BME280;60511;42.686;23.300;2023-04-25T00:24:48;93914.25;;;24.70;31.12
43217;BME280;60511;42.686;23.300;2023-04-25T00:26:48;93918.53;;;24.75;30.69
43217;BME280;60511;42.686;23.300;2023-04-25T00:28:50;93889.81;;;24.56;30.89
43217;BME280;60511;42.686;23.300;2023-04-25T00:30:50;93907.69;;;24.71;30.86
43217;BME280;60511;42.686;23.300;2023-04-25T00:32:50;93909.22;;;24.72;31.04
43217;BME280;60511;42.686;23.300;2023-04-25T00:34:51;93894.84;;;24.57;30.83
43217;BME280;60511;42.686;23.300;2023-04-25T00:36:51;93905.72;;;24.68;30.74
43217;BME280;60511;42.686;23.300;2023-04-25T00:38:53;93901.06;;;24.61;30.69
43217;BME280;60511;42.686;23.300;2023-04-25T00:40:54;93906.91;;;24.74;30.82
43217;BME280;60511;42.686;23.300;2023-04-25T00:42:55;93923.94;;;24.75;31.04
43217;BME280;60511;42.686;23.300;2023-04-25T00:44:56;93916.91;;;24.63;30.67
43217;BME280;60511;42.686;23.300;2023-04-25T00:46:59;93874.25;;;24.42;31.25
43217;BME280;60511;42.686;23.300;2023-04-25T00:49:00;93923.56;;;24.73;30.72
43217;BME280;60511;42.686;23.300;2023-04-25T00:51:01;93923.53;;;24.69;31.45
43217;BME280;60511;42.686;23.300;2023-04-25T00:53:02;93902.53;;;24.52;31.02
43217;BME280;60511;42.686;23.300;2023-04-25T00:55:03;93919.25;;;24.68;31.11
43217;BME280;60511;42.686;23.300;2023-04-25T00:57:04;93915.00;;;24.67;31.40
43217;BME280;60511;42.686;23.300;2023-04-25T00:59:05;93918.09;;;24.65;31.25
43217;BME280;60511;42.686;23.300;2023-04-25T01:01:06;93895.22;;;24.52;31.58
43217;BME280;60511;42.686;23.300;2023-04-25T01:03:07;93909.97;;;24.65;30.99
43217;BME280;60511;42.686;23.300;2023-04-25T01:05:08;93884.44;;;24.63;31.43
43217;BME280;60511;42.686;23.300;2023-04-25T01:07:09;93893.72;;;24.65;31.23
43217;BME280;60511;42.686;23.300;2023-04-25T01:09:10;93878.25;;;24.59;31.71
43217;BME280;60511;42.686;23.300;2023-04-25T01:11:10;93855.31;;;24.45;31.55
43217;BME280;60511;42.686;23.300;2023-04-25T01:13:11;93885.63;;;24.65;31.56
43217;BME280;60511;42.686;23.300;2023-04-25T01:15:11;93882.53;;;24.67;31.60
43217;BME280;60511;42.686;23.300;2023-04-25T01:17:13;93865.06;;;24.50;31.70
43217;BME280;60511;42.686;23.300;2023-04-25T01:19:16;93872.09;;;24.65;31.35
43217;BME280;60511;42.686;23.300;2023-04-25T01:21:18;93883.28;;;24.64;31.21
43217;BME280;60511;42.686;23.300;2023-04-25T01:23:20;93878.28;;;24.62;31.23
43217;BME280;60511;42.686;23.300;2023-04-25T01:25:21;93876.34;;;24.63;31.03
43217;BME280;60511;42.686;23.300;2023-04-25T01:27:22;93868.97;;;24.63;31.03
43217;BME280;60511;42.686;23.300;2023-04-25T01:29:23;93872.84;;;24.62;31.14
43217;BME280;60511;42.686;23.300;2023-04-25T01:31:24;93863.56;;;24.63;30.82
43217;BME280;60511;42.686;23.300;2023-04-25T01:33:25;93862.44;;;24.64;30.90
43217;BME280;60511;42.686;23.300;2023-04-25T01:35:26;93856.19;;;24.57;30.80
43217;BME280;60511;42.686;23.300;2023-04-25T01:37:26;93826.28;;;24.35;31.13
43217;BME280;60511;42.686;23.300;2023-04-25T01:39:27;93863.19;;;24.65;30.89
43217;BME280;60511;42.686;23.300;2023-04-25T01:41:28;93827.84;;;24.36;30.81
43217;BME280;60511;42.686;23.300;2023-04-25T01:43:28;93877.88;;;24.64;31.03
43217;BME280;60511;42.686;23.300;2023-04-25T01:45:29;93874.75;;;24.62;31.09
43217;BME280;60511;42.686;23.300;2023-04-25T01:47:30;93851.88;;;24.49;31.28
43217;BME280;60511;42.686;23.300;2023-04-25T01:49:30;93849.91;;;24.42;31.13
43217;BME280;60511;42.686;23.300;2023-04-25T01:51:31;93874.72;;;24.51;31.46
43217;BME280;60511;42.686;23.300;2023-04-25T01:53:31;93875.44;;;24.48;31.29
43217;BME280;60511;42.686;23.300;2023-04-25T01:55:34;93876.28;;;24.52;31.02
43217;BME280;60511;42.686;23.300;2023-04-25T01:57:34;93849.13;;;24.38;31.11
43217;BME280;60511;42.686;23.300;2023-04-25T01:59:36;93894.88;;;24.61;31.10
43217;BME280;60511;42.686;23.300;2023-04-25T02:01:37;93887.91;;;24.60;31.26
43217;BME280;60511;42.686;23.300;2023-04-25T02:03:37;93884.78;;;24.58;31.13
43217;BME280;60511;42.686;23.300;2023-04-25T02:05:38;93804.00;;;23.94;31.09
43217;BME280;60511;42.686;23.300;2023-04-25T02:07:39;93872.38;;;24.50;31.25
43217;BME280;60511;42.686;23.300;2023-04-25T02:09:40;93875.53;;;24.59;31.09
43217;BME280;60511;42.686;23.300;2023-04-25T02:11:40;93875.13;;;24.57;31.30
43217;BME280;60511;42.686;23.300;2023-04-25T02:13:41;93854.13;;;24.39;30.96
43217;BME280;60511;42.686;23.300;2023-04-25T02:15:41;93864.22;;;24.46;31.18
43217;BME280;60511;42.686;23.300;2023-04-25T02:17:41;93872.06;;;24.58;31.11
43217;BME280;60511;42.686;23.300;2023-04-25T02:19:42;93872.06;;;24.58;31.16
43217;BME280;60511;42.686;23.300;2023-04-25T02:21:42;93849.22;;;24.52;31.31
43217;BME280;60511;42.686;23.300;2023-04-25T02:23:43;93853.50;;;24.57;31.19
43217;BME280;60511;42.686;23.300;2023-04-25T02:25:45;93772.03;;;24.06;31.32
43217;BME280;60511;42.686;23.300;2023-04-25T02:27:49;93810.44;;;24.37;31.31
43217;BME280;60511;42.686;23.300;2023-04-25T02:29:50;93849.22;;;24.56;31.06
43217;BME280;60511;42.686;23.300;2023-04-25T02:31:51;93825.56;;;24.42;31.09
43217;BME280;60511;42.686;23.300;2023-04-25T02:33:51;93835.69;;;24.56;31.17
43217;BME280;60511;42.686;23.300;2023-04-25T02:35:51;93833.38;;;24.54;31.25
43217;BME280;60511;42.686;23.300;2023-04-25T02:37:52;93829.53;;;24.55;31.11
43217;BME280;60511;42.686;23.300;2023-04-25T02:39:52;93824.09;;;24.52;30.99
43217;BME280;60511;42.686;23.300;2023-04-25T02:41:53;93817.44;;;24.42;31.39
43217;BME280;60511;42.686;23.300;2023-04-25T02:43:53;93786.03;;;24.23;30.97
43217;BME280;60511;42.686;23.300;2023-04-25T02:45:54;93732.56;;;23.91;30.88
43217;BME280;60511;42.686;23.300;2023-04-25T02:47:54;93813.19;;;24.41;31.25
43217;BME280;60511;42.686;23.300;2023-04-25T02:49:55;93815.53;;;24.46;31.02
43217;BME280;60511;42.686;23.300;2023-04-25T02:51:55;93824.88;;;24.56;31.03
43217;BME280;60511;42.686;23.300;2023-04-25T02:53:55;93799.66;;;24.41;31.04
43217;BME280;60511;42.686;23.300;2023-04-25T02:55:56;93807.41;;;24.42;30.98
43217;BME280;60511;42.686;23.300;2023-04-25T02:57:58;93824.09;;;24.55;31.05
43217;BME280;60511;42.686;23.300;2023-04-25T02:59:58;93776.41;;;24.25;31.23
43217;BME280;60511;42.686;23.300;2023-04-25T03:01:59;93812.88;;;24.50;30.95
43217;BME280;60511;42.686;23.300;2023-04-25T03:03:59;93815.56;;;24.50;31.03
43217;BME280;60511;42.686;23.300;2023-04-25T03:06:00;93814.81;;;24.53;31.28
43217;BME280;60511;42.686;23.300;2023-04-25T03:08:00;93776.00;;;24.27;31.52
43217;BME280;60511;42.686;23.300;2023-04-25T03:10:01;93789.22;;;24.39;31.12
43217;BME280;60511;42.686;23.300;2023-04-25T03:12:01;93803.16;;;24.45;31.33
43217;BME280;60511;42.686;23.300;2023-04-25T03:14:02;93819.47;;;24.52;31.46
43217;BME280;60511;42.686;23.300;2023-04-25T03:16:02;93795.38;;;24.33;31.47
43217;BME280;60511;42.686;23.300;2023-04-25T03:18:03;93815.94;;;24.48;31.37
43217;BME280;60511;42.686;23.300;2023-04-25T03:20:04;93814.44;;;24.51;31.42
43217;BME280;60511;42.686;23.300;2023-04-25T03:22:05;93811.72;;;24.51;31.38
43217;BME280;60511;42.686;23.300;2023-04-25T03:24:05;93767.09;;;24.23;31.27
43217;BME280;60511;42.686;23.300;2023-04-25T03:26:06;93729.50;;;23.93;31.50
43217;BME280;60511;42.686;23.300;2023-04-25T03:28:07;93804.75;;;24.50;31.25
43217;BME280;60511;42.686;23.300;2023-04-25T03:30:07;93801.22;;;24.45;31.16
43217;BME280;60511;42.686;23.300;2023-04-25T03:32:08;93819.84;;;24.51;31.29
43217;BME280;60511;42.686;23.300;2023-04-25T03:34:09;93791.91;;;24.36;31.39
43217;BME280;60511;42.686;23.300;2023-04-25T03:36:09;93760.91;;;24.15;31.75
43217;BME280;60511;42.686;23.300;2023-04-25T03:38:10;93800.03;;;24.39;31.67
43217;BME280;60511;42.686;23.300;2023-04-25T03:40:10;93800.84;;;24.40;31.99
43217;BME280;60511;42.686;23.300;2023-04-25T03:42:11;93773.72;;;24.25;31.26
43217;BME280;60511;42.686;23.300;2023-04-25T03:44:11;93788.81;;;24.34;31.47
43217;BME280;60511;42.686;23.300;2023-04-25T03:46:12;93776.81;;;24.31;30.93
43217;BME280;60511;42.686;23.300;2023-04-25T03:48:12;93807.00;;;24.40;31.32
43217;BME280;60511;42.686;23.300;2023-04-25T03:50:12;93748.84;;;24.02;31.29
43217;BME280;60511;42.686;23.300;2023-04-25T03:52:13;93516.41;;;22.59;31.37
43217;BME280;60511;42.686;23.300;2023-04-25T03:54:13;93783.38;;;24.30;31.36
43217;BME280;60511;42.686;23.300;2023-04-25T03:56:14;93799.31;;;24.46;31.40
43217;BME280;60511;42.686;23.300;2023-04-25T03:58:15;93772.56;;;24.30;31.71
43217;BME280;60511;42.686;23.300;2023-04-25T04:00:15;93781.06;;;24.32;31.23
43217;BME280;60511;42.686;23.300;2023-04-25T04:02:16;93810.88;;;24.43;31.09
43217;BME280;60511;42.686;23.300;2023-04-25T04:04:16;93801.53;;;24.33;31.17
43217;BME280;60511;42.686;23.300;2023-04-25T04:06:17;93814.00;;;24.49;31.19
43217;BME280;60511;42.686;23.300;2023-04-25T04:08:17;93828.28;;;24.49;31.21
43217;BME280;60511;42.686;23.300;2023-04-25T04:10:17;93819.03;;;24.46;31.33
43217;BME280;60511;42.686;23.300;2023-04-25T04:12:18;93809.72;;;24.40;31.33
43217;BME280;60511;42.686;23.300;2023-04-25T04:14:18;93813.97;;;24.45;31.23
43217;BME280;60511;42.686;23.300;2023-04-25T04:16:19;93821.34;;;24.48;31.51
43217;BME280;60511;42.686;23.300;2023-04-25T04:18:19;93798.06;;;24.33;31.25
43217;BME280;60511;42.686;23.300;2023-04-25T04:20:20;93800.84;;;24.40;31.23
43217;BME280;60511;42.686;23.300;2023-04-25T04:22:20;93813.59;;;24.46;31.07
43217;BME280;60511;42.686;23.300;2023-04-25T04:24:21;93800.41;;;24.34;30.95
43217;BME280;60511;42.686;23.300;2023-04-25T04:26:21;93782.19;;;24.24;31.17
43217;BME280;60511;42.686;23.300;2023-04-25T04:28:24;93795.00;;;24.34;31.28
43217;BME280;60511;42.686;23.300;2023-04-25T04:30:26;93805.13;;;24.48;31.03
43217;BME280;60511;42.686;23.300;2023-04-25T04:32:29;93816.31;;;24.46;31.33
43217;BME280;60511;42.686;23.300;2023-04-25T04:34:30;93788.78;;;24.30;31.61
43217;BME280;60511;42.686;23.300;2023-04-25T04:36:31;93811.28;;;24.45;31.64
43217;BME280;60511;42.686;23.300;2023-04-25T04:38:32;93798.88;;;24.37;31.19
43217;BME280;60511;42.686;23.300;2023-04-25T04:40:32;93810.53;;;24.48;31.23
43217;BME280;60511;42.686;23.300;2023-04-25T04:42:32;93810.88;;;24.43;31.32
43217;BME280;60511;42.686;23.300;2023-04-25T04:44:33;93768.63;;;24.17;31.25
43217;BME280;60511;42.686;23.300;2023-04-25T04:46:34;93827.13;;;24.46;31.30
43217;BME280;60511;42.686;23.300;2023-04-25T04:48:42;93796.91;;;24.30;32.12
43217;BME280;60511;42.686;23.300;2023-04-25T04:50:43;93791.88;;;24.29;33.03
43217;BME280;60511;42.686;23.300;2023-04-25T04:52:45;93771.66;;;24.08;32.74
43217;BME280;60511;42.686;23.300;2023-04-25T04:54:46;93820.56;;;24.47;32.50
43217;BME280;60511;42.686;23.300;2023-04-25T04:56:46;93833.38;;;24.51;32.73
43217;BME280;60511;42.686;23.300;2023-04-25T04:58:47;93827.09;;;24.43;32.87
43217;BME280;60511;42.686;23.300;2023-04-25T05:00:49;93792.63;;;24.25;32.44
43217;BME280;60511;42.686;23.300;2023-04-25T05:02:49;93808.16;;;24.36;32.23
43217;BME280;60511;42.686;23.300;2023-04-25T05:04:50;93841.13;;;24.52;32.52
43217;BME280;60511;42.686;23.300;2023-04-25T05:06:51;93828.28;;;24.45;32.23
43217;BME280;60511;42.686;23.300;2023-04-25T05:08:52;93800.66;;;24.11;31.67
43217;BME280;60511;42.686;23.300;2023-04-25T05:10:53;93841.81;;;24.49;31.57
43217;BME280;60511;42.686;23.300;2023-04-25T05:12:53;93843.41;;;24.50;31.43
43217;BME280;60511;42.686;23.300;2023-04-25T05:14:53;93842.94;;;24.41;31.40
43217;BME280;60511;42.686;23.300;2023-04-25T05:16:54;93843.38;;;24.46;31.57
43217;BME280;60511;42.686;23.300;2023-04-25T05:18:55;93823.94;;;24.30;31.68
43217;BME280;60511;42.686;23.300;2023-04-25T05:20:55;93842.16;;;24.40;32.05
43217;BME280;60511;42.686;23.300;2023-04-25T05:22:55;93850.72;;;24.46;31.49
43217;BME280;60511;42.686;23.300;2023-04-25T05:24:56;93848.78;;;24.46;31.44
43217;BME280;60511;42.686;23.300;2023-04-25T05:26:57;93842.19;;;24.47;31.37
43217;BME280;60511;42.686;23.300;2023-04-25T05:28:57;93836.72;;;24.37;31.39
43217;BME280;60511;42.686;23.300;2023-04-25T05:30:58;93840.66;;;24.46;31.53
43217;BME280;60511;42.686;23.300;2023-04-25T05:32:58;93764.25;;;23.94;31.20
43217;BME280;60511;42.686;23.300;2023-04-25T05:34:59;93814.31;;;24.36;31.25
43217;BME280;60511;42.686;23.300;2023-04-25T05:37:00;93846.91;;;24.51;31.42
43217;BME280;60511;42.686;23.300;2023-04-25T05:39:00;93841.41;;;24.43;31.25
43217;BME280;60511;42.686;23.300;2023-04-25T05:41:01;93779.00;;;24.08;31.32
43217;BME280;60511;42.686;23.300;2023-04-25T05:43:01;93832.50;;;24.39;30.90
43217;BME280;60511;42.686;23.300;2023-04-25T05:45:02;93836.41;;;24.49;30.96
43217;BME280;60511;42.686;23.300;2023-04-25T05:47:02;93843.00;;;24.48;31.19
43217;BME280;60511;42.686;23.300;2023-04-25T05:49:05;93848.81;;;24.50;30.99
43217;BME280;60511;42.686;23.300;2023-04-25T05:51:05;93841.06;;;24.49;31.07
43217;BME280;60511;42.686;23.300;2023-04-25T05:53:06;93841.00;;;24.41;31.15
43217;BME280;60511;42.686;23.300;2023-04-25T05:55:06;93846.84;;;24.47;30.95
43217;BME280;60511;42.686;23.300;2023-04-25T05:57:07;93844.13;;;24.47;31.06
43217;BME280;60511;42.686;23.300;2023-04-25T05:59:08;93823.97;;;24.37;31.04
43217;BME280;60511;42.686;23.300;2023-04-25T06:01:09;93803.44;;;24.22;31.20
43217;BME280;60511;42.686;23.300;2023-04-25T06:03:10;93836.78;;;24.47;31.10
43217;BME280;60511;42.686;23.300;2023-04-25T06:05:10;93808.88;;;24.29;30.90
43217;BME280;60511;42.686;23.300;2023-04-25T06:07:11;93836.06;;;24.51;30.73
43217;BME280;60511;42.686;23.300;2023-04-25T06:09:11;93818.13;;;24.24;30.93
43217;BME280;60511;42.686;23.300;2023-04-25T06:11:12;93757.22;;;23.86;30.76
43217;BME280;60511;42.686;23.300;2023-04-25T06:13:12;93851.53;;;24.54;31.20
43217;BME280;60511;42.686;23.300;2023-04-25T06:15:13;93780.97;;;24.14;31.36
43217;BME280;60511;42.686;23.300;2023-04-25T06:17:13;93853.13;;;24.58;31.43
43217;BME280;60511;42.686;23.300;2023-04-25T06:19:14;93855.84;;;24.58;31.39
43217;BME280;60511;42.686;23.300;2023-04-25T06:21:15;93820.94;;;24.42;31.36
43217;BME280;60511;42.686;23.300;2023-04-25T06:23:15;93820.94;;;24.42;31.28
43217;BME280;60511;42.686;23.300;2023-04-25T06:25:16;93852.72;;;24.60;31.16
43217;BME280;60511;42.686;23.300;2023-04-25T06:27:16;93830.69;;;24.54;31.47
43217;BME280;60511;42.686;23.300;2023-04-25T06:29:17;93848.91;;;24.64;31.24
43217;BME280;60511;42.686;23.300;2023-04-25T06:31:17;93853.94;;;24.70;31.26
43217;BME280;60511;42.686;23.300;2023-04-25T06:33:18;93854.72;;;24.70;31.17
43217;BME280;60511;42.686;23.300;2023-04-25T06:35:18;93854.72;;;24.74;31.24
43217;BME280;60511;42.686;23.300;2023-04-25T06:37:19;93852.78;;;24.74;31.06
43217;BME280;60511;42.686;23.300;2023-04-25T06:39:20;93843.13;;;24.73;31.18
43217;BME280;60511;42.686;23.300;2023-04-25T06:41:22;93838.06;;;24.68;31.14
43217;BME280;60511;42.686;23.300;2023-04-25T06:43:22;93829.56;;;24.62;30.96
43217;BME280;60511;42.686;23.300;2023-04-25T06:45:23;93809.44;;;24.56;31.04
43217;BME280;60511;42.686;23.300;2023-04-25T06:47:24;93841.56;;;24.69;31.15
43217;BME280;60511;42.686;23.300;2023-04-25T06:49:24;93852.78;;;24.67;30.98
43217;BME280;60511;42.686;23.300;2023-04-25T06:51:25;93841.19;;;24.66;31.06
43217;BME280;60511;42.686;23.300;2023-04-25T06:53:28;93854.38;;;24.82;31.02
43217;BME280;60511;42.686;23.300;2023-04-25T06:55:28;93858.66;;;24.83;31.14
43217;BME280;60511;42.686;23.300;2023-04-25T06:57:29;93850.53;;;24.83;31.05
43217;BME280;60511;42.686;23.300;2023-04-25T06:59:29;93857.88;;;24.86;31.21
43217;BME280;60511;42.686;23.300;2023-04-25T07:01:30;93854.41;;;24.86;31.13
43217;BME280;60511;42.686;23.300;2023-04-25T07:03:30;93842.72;;;24.67;31.33
43217;BME280;60511;42.686;23.300;2023-04-25T07:05:31;93770.59;;;24.23;31.27
43217;BME280;60511;42.686;23.300;2023-04-25T07:07:31;93862.53;;;24.86;31.11
43217;BME280;60511;42.686;23.300;2023-04-25T07:09:32;93847.81;;;24.80;31.05
43217;BME280;60511;42.686;23.300;2023-04-25T07:11:34;93864.84;;;24.84;31.20
43217;BME280;60511;42.686;23.300;2023-04-25T07:13:35;93834.97;;;24.66;31.32
43217;BME280;60511;42.686;23.300;2023-04-25T07:15:36;93863.28;;;24.86;31.18
43217;BME280;60511;42.686;23.300;2023-04-25T07:17:38;93859.81;;;24.86;31.18
43217;BME280;60511;42.686;23.300;2023-04-25T07:19:38;93843.13;;;24.73;30.95
43217;BME280;60511;42.686;23.300;2023-04-25T07:21:41;93847.41;;;24.78;31.54
43217;BME280;60511;42.686;23.300;2023-04-25T07:23:42;93857.09;;;24.86;31.21
43217;BME280;60511;42.686;23.300;2023-04-25T07:25:42;93667.91;;;23.64;31.30
43217;BME280;60511;42.686;23.300;2023-04-25T07:27:43;93853.25;;;24.87;31.20
43217;BME280;60511;42.686;23.300;2023-04-25T07:29:43;93845.13;;;24.83;31.09
43217;BME280;60511;42.686;23.300;2023-04-25T07:31:43;93803.66;;;24.61;31.03
43217;BME280;60511;42.686;23.300;2023-04-25T07:33:45;93807.91;;;24.62;31.23
43217;BME280;60511;42.686;23.300;2023-04-25T07:35:46;93843.59;;;24.90;31.58
43217;BME280;60511;42.686;23.300;2023-04-25T07:37:46;93829.22;;;24.78;31.16
43217;BME280;60511;42.686;23.300;2023-04-25T07:39:46;93828.47;;;24.81;31.13
43217;BME280;60511;42.686;23.300;2023-04-25T07:41:47;93679.28;;;23.84;30.86
43217;BME280;60511;42.686;23.300;2023-04-25T07:43:48;93808.34;;;24.75;31.05
43217;BME280;60511;42.686;23.300;2023-04-25T07:45:48;93831.59;;;24.87;30.92
43217;BME280;60511;42.686;23.300;2023-04-25T07:47:49;93809.13;;;24.76;31.21
43217;BME280;60511;42.686;23.300;2023-04-25T07:49:50;93816.88;;;24.84;31.01
43217;BME280;60511;42.686;23.300;2023-04-25T07:51:50;93819.19;;;24.82;30.85
43217;BME280;60511;42.686;23.300;2023-04-25T07:53:51;93815.75;;;24.85;31.08
43217;BME280;60511;42.686;23.300;2023-04-25T07:55:51;93798.28;;;24.76;31.17
43217;BME280;60511;42.686;23.300;2023-04-25T07:57:52;93833.97;;;24.99;31.02
43217;BME280;60511;42.686;23.300;2023-04-25T07:59:52;93825.47;;;24.97;30.76
43217;BME280;60511;42.686;23.300;2023-04-25T08:01:52;93823.50;;;24.94;31.00
43217;BME280;60511;42.686;23.300;2023-04-25T08:03:53;93823.50;;;24.94;30.96
43217;BME280;60511;42.686;23.300;2023-04-25T08:05:53;93802.97;;;24.82;31.39
43217;BME280;60511;42.686;23.300;2023-04-25T08:07:54;93827.00;;;24.98;30.99
43217;BME280;60511;42.686;23.300;2023-04-25T08:09:55;93819.66;;;24.95;31.11
43217;BME280;60511;42.686;23.300;2023-04-25T08:11:55;93809.59;;;24.99;30.80
43217;BME280;60511;42.686;23.300;2023-04-25T08:13:56;93754.56;;;24.59;30.88
43217;BME280;60511;42.686;23.300;2023-04-25T08:15:56;93823.56;;;25.05;30.93
43217;BME280;60511;42.686;23.300;2023-04-25T08:17:57;93801.44;;;24.92;30.84
43217;BME280;60511;42.686;23.300;2023-04-25T08:19:57;93735.59;;;24.56;31.10
43217;BME280;60511;42.686;23.300;2023-04-25T08:21:58;93799.13;;;24.91;31.07
43217;BME280;60511;42.686;23.300;2023-04-25T08:23:58;93812.72;;;25.05;30.87
43217;BME280;60511;42.686;23.300;2023-04-25T08:25:59;93812.34;;;25.03;31.01
43217;BME280;60511;42.686;23.300;2023-04-25T08:27:59;93799.53;;;24.96;31.08
43217;BME280;60511;42.686;23.300;2023-04-25T08:30:02;93822.00;;;25.08;31.06
43217;BME280;60511;42.686;23.300;2023-04-25T08:32:03;93793.34;;;24.96;31.10
43217;BME280;60511;42.686;23.300;2023-04-25T08:34:03;93805.75;;;24.97;31.16
43217;BME280;60511;42.686;23.300;2023-04-25T08:36:04;93812.34;;;25.03;31.18
43217;BME280;60511;42.686;23.300;2023-04-25T08:38:05;93815.03;;;25.03;31.22
43217;BME280;60511;42.686;23.300;2023-04-25T08:40:11;93802.22;;;24.93;31.06
43217;BME280;60511;42.686;23.300;2023-04-25T08:42:15;93832.47;;;25.09;31.28
43217;BME280;60511;42.686;23.300;2023-04-25T08:44:16;93803.78;;;24.94;31.09
43217;BME280;60511;42.686;23.300;2023-04-25T08:46:19;93822.00;;;25.04;31.14
43217;BME280;60511;42.686;23.300;2023-04-25T08:48:21;93771.63;;;24.74;31.20
43217;BME280;60511;42.686;23.300;2023-04-25T08:50:22;93803.03;;;24.97;31.14
43217;BME280;60511;42.686;23.300;2023-04-25T08:52:23;93795.28;;;24.95;31.22
43217;BME280;60511;42.686;23.300;2023-04-25T08:54:27;93820.84;;;25.12;31.22
43217;BME280;60511;42.686;23.300;2023-04-25T08:56:28;93626.00;;;23.89;31.39
43217;BME280;60511;42.686;23.300;2023-04-25T08:58:28;93799.97;;;25.05;31.26
43217;BME280;60511;42.686;23.300;2023-04-25T09:00:29;93785.25;;;24.99;31.19
43217;BME280;60511;42.686;23.300;2023-04-25T09:02:29;93805.38;;;25.09;31.25
43217;BME280;60511;42.686;23.300;2023-04-25T09:04:31;93787.56;;;24.97;31.15
43217;BME280;60511;42.686;23.300;2023-04-25T09:06:32;93769.72;;;24.85;31.21
43217;BME280;60511;42.686;23.300;2023-04-25T09:08:36;93798.81;;;25.14;31.28
43217;BME280;60511;42.686;23.300;2023-04-25T09:10:37;93786.81;;;25.08;31.16
43217;BME280;60511;42.686;23.300;2023-04-25T09:12:38;93796.09;;;25.14;31.14
43217;BME280;60511;42.686;23.300;2023-04-25T09:14:39;93796.13;;;25.17;31.05
43217;BME280;60511;42.686;23.300;2023-04-25T09:18:58;93781.41;;;25.11;31.38
43217;BME280;60511;42.686;23.300;2023-04-25T09:23:05;93783.78;;;25.23;31.39
43217;BME280;60511;42.686;23.300;2023-04-25T09:25:11;93720.59;;;24.76;31.29
43217;BME280;60511;42.686;23.300;2023-04-25T09:27:17;93789.19;;;25.23;31.52
43217;BME280;60511;42.686;23.300;2023-04-25T09:29:19;93772.88;;;25.13;31.38
43217;BME280;60511;42.686;23.300;2023-04-25T09:31:28;93768.25;;;25.13;31.37
43217;BME280;60511;42.686;23.300;2023-04-25T09:33:33;93783.00;;;25.23;31.32
43217;BME280;60511;42.686;23.300;2023-04-25T09:35:39;93779.91;;;25.24;31.22
43217;BME280;60511;42.686;23.300;2023-04-25T09:37:40;93737.66;;;24.91;31.45
43217;BME280;60511;42.686;23.300;2023-04-25T09:39:40;93775.97;;;25.15;31.14
43217;BME280;60511;42.686;23.300;2023-04-25T09:41:41;93721.38;;;24.80;31.41
43217;BME280;60511;42.686;23.300;2023-04-25T09:43:44;93769.81;;;25.18;31.35
43217;BME280;60511;42.686;23.300;2023-04-25T09:45:45;93723.69;;;24.82;31.56
43217;BME280;60511;42.686;23.300;2023-04-25T09:47:47;93777.97;;;25.29;31.48
43217;BME280;60511;42.686;23.300;2023-04-25T09:49:47;93756.28;;;25.25;31.57
43217;BME280;60511;42.686;23.300;2023-04-25T09:51:58;93755.91;;;25.23;31.66
43217;BME280;60511;42.686;23.300;2023-04-25T09:54:03;93758.63;;;25.23;31.56
43217;BME280;60511;42.686;23.300;2023-04-25T09:56:05;93769.47;;;25.26;31.85
43217;BME280;60511;42.686;23.300;2023-04-25T09:58:07;93775.28;;;25.32;31.84
43217;BME280;60511;42.686;23.300;2023-04-25T10:00:09;93762.47;;;25.18;31.56
43217;BME280;60511;42.686;23.300;2023-04-25T10:02:14;93776.44;;;25.35;32.38
43217;BME280;60511;42.686;23.300;2023-04-25T10:04:23;93760.97;;;25.28;32.66
43217;BME280;60511;42.686;23.300;2023-04-25T10:06:25;93779.91;;;25.39;32.20
43217;BME280;60511;42.686;23.300;2023-04-25T10:08:32;93760.56;;;25.26;32.32
43217;BME280;60511;42.686;23.300;2023-04-25T10:10:33;93776.44;;;25.35;32.25
43217;BME280;60511;42.686;23.300;2023-04-25T10:12:36;93780.31;;;25.34;31.74
43217;BME280;60511;42.686;23.300;2023-04-25T10:14:38;93738.03;;;25.00;32.19
43217;BME280;60511;42.686;23.300;2023-04-25T10:16:39;93744.59;;;24.89;32.46
43217;BME280;60511;42.686;23.300;2023-04-25T10:18:41;93786.09;;;25.29;31.91
43217;BME280;60511;42.686;23.300;2023-04-25T10:20:42;93772.56;;;25.21;31.73
43217;BME280;60511;42.686;23.300;2023-04-25T10:22:44;93786.50;;;25.31;31.43
43217;BME280;60511;42.686;23.300;2023-04-25T10:24:46;93780.66;;;25.25;31.27
43217;BME280;60511;42.686;23.300;2023-04-25T10:26:47;93763.28;;;25.26;31.15
43217;BME280;60511;42.686;23.300;2023-04-25T10:28:59;93775.28;;;25.32;31.14
43217;BME280;60511;42.686;23.300;2023-04-25T10:31:04;93765.22;;;25.33;31.13
43217;BME280;60511;42.686;23.300;2023-04-25T10:33:17;93742.34;;;25.16;31.06
43217;BME280;60511;42.686;23.300;2023-04-25T10:35:27;93765.59;;;25.28;31.21
43217;BME280;60511;42.686;23.300;2023-04-25T10:37:27;93728.78;;;25.05;31.04